Time;durP1;ratioP1;P1;durP2;ratioP2;P2;SDS_P1;SDS_P2;PMS_P1;PMS_P2;Temp;Humidity;BMP_temperature;BMP_pressure;BME280_temperature;BME280_humidity;BME280_pressure;Samples;Min_cycle;Max_cycle;Signal;HPM_P1;HPM_P2
2023/11/30 00:00:30;;;;;;;0.68;0.68;;;;;;;0.43;100.00;97980.84;5098810;28;20740;-61
2023/11/30 00:02:57;;;;;;;0.60;0.60;;;;;;;0.50;100.00;97975.56;5108092;27;20040;-59
2023/11/30 00:05:24;;;;;;;0.63;0.63;;;;;;;0.51;100.00;97973.75;5093604;28;20040;-59
2023/11/30 00:07:52;;;;;;;0.60;0.60;;;;;;;0.52;100.00;97981.41;5098235;28;20047;-60
2023/11/30 00:10:20;;;;;;;0.70;0.70;;;;;;;0.47;100.00;97986.50;5096272;28;20047;-59
2023/11/30 00:12:51;;;;;;;0.70;0.70;;;;;;;0.45;100.00;97982.47;5097975;28;20047;-59
2023/11/30 00:15:18;;;;;;;0.70;0.70;;;;;;;0.50;100.00;97986.13;5094804;28;20044;-60
2023/11/30 00:17:46;;;;;;;0.50;0.50;;;;;;;0.54;100.00;97979.38;5094638;28;20568;-60
2023/11/30 00:20:13;;;;;;;0.70;0.70;;;;;;;0.57;100.00;97968.41;5090608;28;20059;-59
2023/11/30 00:22:41;;;;;;;0.77;0.77;;;;;;;0.59;100.00;97958.47;5096489;28;20559;-59
2023/11/30 00:25:08;;;;;;;0.60;0.60;;;;;;;0.58;100.00;97956.88;5091906;28;20109;-59
2023/11/30 00:27:35;;;;;;;0.68;0.68;;;;;;;0.65;100.00;97964.75;5093044;28;20094;-60
2023/11/30 00:30:06;;;;;;;0.70;0.70;;;;;;;0.74;100.00;97949.50;5093943;28;20222;-60
2023/11/30 00:32:33;;;;;;;;;;;;;;;0.74;100.00;97941.59;5098018;28;20043;-59
2023/11/30 00:35:00;;;;;;;0.70;0.70;;;;;;;0.73;100.00;97945.25;5098174;28;20719;-60
2023/11/30 00:37:32;;;;;;;0.70;0.70;;;;;;;0.87;100.00;97949.41;5092682;28;20084;-59
2023/11/30 00:39:59;;;;;;;0.70;0.70;;;;;;;0.89;100.00;97951.84;5088866;28;20044;-60
2023/11/30 00:42:26;;;;;;;0.60;0.60;;;;;;;0.81;100.00;97971.38;5094458;28;20135;-59
2023/11/30 00:44:53;;;;;;;0.55;0.55;;;;;;;0.72;100.00;97975.25;5092977;28;20036;-60
2023/11/30 00:47:24;;;;;;;0.70;0.70;;;;;;;0.66;100.00;97976.13;5095176;28;20152;-60
2023/11/30 00:49:51;;;;;;;0.70;0.70;;;;;;;0.49;100.00;97971.28;5089175;28;20055;-60
2023/11/30 00:52:18;;;;;;;0.73;0.73;;;;;;;0.44;100.00;97965.84;5093141;28;20047;-60
2023/11/30 00:54:46;;;;;;;0.60;0.60;;;;;;;0.53;100.00;97956.69;5093768;28;20100;-60
2023/11/30 00:57:13;;;;;;;0.70;0.70;;;;;;;0.50;100.00;97959.75;5092690;28;20425;-60
2023/11/30 00:59:43;;;;;;;0.75;0.75;;;;;;;0.54;100.00;97950.38;5094365;28;20447;-59
2023/11/30 01:02:10;;;;;;;0.60;0.60;;;;;;;0.56;100.00;97943.09;5091993;27;20051;-58
2023/11/30 01:04:41;;;;;;;0.80;0.80;;;;;;;0.56;100.00;97942.28;5111112;27;20043;-60
2023/11/30 01:07:08;;;;;;;0.60;0.60;;;;;;;0.61;100.00;97932.72;5108360;27;20067;-59
2023/11/30 01:09:35;;;;;;;0.65;0.65;;;;;;;0.60;100.00;97925.84;5097612;28;20058;-60
2023/11/30 01:12:02;;;;;;;0.80;0.80;;;;;;;0.60;100.00;97915.28;5097569;28;20393;-60
2023/11/30 01:14:29;;;;;;;0.65;0.65;;;;;;;0.57;100.00;97917.53;5092889;28;20044;-59
2023/11/30 01:16:56;;;;;;;0.70;0.70;;;;;;;0.58;100.00;97919.16;5097454;28;20127;-59
2023/11/30 01:19:24;;;;;;;0.60;0.60;;;;;;;0.66;100.00;97918.09;5080464;28;20138;-59
2023/11/30 01:21:53;;;;;;;0.60;0.60;;;;;;;0.68;100.00;97918.72;5090532;28;20050;-59
2023/11/30 01:24:20;;;;;;;0.60;0.60;;;;;;;0.75;100.00;97919.44;5095283;28;20044;-59
2023/11/30 01:26:48;;;;;;;0.60;0.60;;;;;;;0.78;100.00;97913.78;5095373;28;20646;-59
2023/11/30 01:29:15;;;;;;;0.60;0.60;;;;;;;0.67;100.00;97911.78;5097159;28;20047;-59
2023/11/30 01:31:42;;;;;;;0.70;0.70;;;;;;;0.75;100.00;97901.00;5111676;27;20036;-58
2023/11/30 01:34:10;;;;;;;0.68;0.68;;;;;;;0.75;100.00;97895.72;5094418;28;20040;-59
2023/11/30 01:36:37;;;;;;;0.50;0.50;;;;;;;0.69;100.00;97889.47;5086194;28;20059;-58
2023/11/30 01:39:07;;;;;;;0.63;0.63;;;;;;;0.71;100.00;97892.72;5089439;28;20181;-59
2023/11/30 01:41:37;;;;;;;0.68;0.68;;;;;;;0.68;100.00;97901.03;5096153;28;20191;-58
2023/11/30 01:44:04;;;;;;;0.50;0.50;;;;;;;0.64;100.00;97908.56;5091607;28;20047;-58
2023/11/30 01:46:31;;;;;;;0.52;0.52;;;;;;;0.55;100.00;97909.84;5096831;28;20060;-58
2023/11/30 01:48:59;;;;;;;0.45;0.45;;;;;;;0.38;100.00;97908.69;5094088;28;20089;-58
2023/11/30 01:51:26;;;;;;;0.60;0.60;;;;;;;0.34;100.00;97896.94;5106247;27;20044;-58
2023/11/30 01:53:53;;;;;;;0.60;0.60;;;;;;;0.38;100.00;97898.16;5093287;28;20054;-58
2023/11/30 01:56:22;;;;;;;0.60;0.60;;;;;;;0.39;100.00;97889.22;5110708;27;20039;-59
2023/11/30 01:58:50;;;;;;;0.55;0.55;;;;;;;0.26;100.00;97889.28;5091209;28;20043;-58
2023/11/30 02:01:17;;;;;;;0.60;0.60;;;;;;;0.29;100.00;97884.38;5091898;28;20059;-58
2023/11/30 02:03:45;;;;;;;0.60;0.60;;;;;;;0.34;100.00;97883.75;5094386;28;20497;-59
2023/11/30 02:06:16;;;;;;;0.60;0.60;;;;;;;0.43;100.00;97895.69;5091799;28;20050;-59
2023/11/30 02:08:45;;;;;;;0.55;0.55;;;;;;;0.51;100.00;97894.66;5090806;28;20044;-59
2023/11/30 02:11:12;;;;;;;0.50;0.50;;;;;;;0.57;100.00;97891.94;5095865;28;20096;-58
2023/11/30 02:13:41;;;;;;;0.60;0.60;;;;;;;0.37;100.00;97891.25;5091745;28;20113;-58
2023/11/30 02:16:11;;;;;;;0.60;0.60;;;;;;;0.23;100.00;97885.22;5091630;28;20046;-58
2023/11/30 02:18:38;;;;;;;0.43;0.43;;;;;;;0.23;100.00;97884.44;5095498;28;20067;-59
2023/11/30 02:21:06;;;;;;;0.60;0.60;;;;;;;0.29;100.00;97888.84;5095218;28;20666;-59
2023/11/30 02:23:34;;;;;;;0.60;0.60;;;;;;;0.26;100.00;97884.00;5106439;28;20040;-58
2023/11/30 02:26:01;;;;;;;0.70;0.70;;;;;;;0.32;100.00;97886.59;5087266;28;20146;-59
2023/11/30 02:28:28;;;;;;;0.60;0.60;;;;;;;0.32;100.00;97883.16;5095726;28;20153;-58
2023/11/30 02:30:55;;;;;;;0.70;0.70;;;;;;;0.29;100.00;97878.31;5089847;28;20806;-58
2023/11/30 02:33:22;;;;;;;0.70;0.70;;;;;;;0.18;100.00;97875.31;5092329;28;20051;-58
2023/11/30 02:35:49;;;;;;;0.50;0.50;;;;;;;0.17;100.00;97881.59;5095423;28;20040;-59
2023/11/30 02:38:16;;;;;;;0.55;0.55;;;;;;;0.20;100.00;97864.53;5095191;28;20055;-59
2023/11/30 02:40:48;;;;;;;0.60;0.60;;;;;;;0.16;100.00;97858.91;5107956;27;20071;-59
2023/11/30 02:43:15;;;;;;;0.60;0.60;;;;;;;0.21;100.00;97866.19;5093261;28;20051;-59
2023/11/30 02:45:45;;;;;;;0.60;0.60;;;;;;;0.21;100.00;97864.34;5109109;27;20127;-58
2023/11/30 02:48:12;;;;;;;0.65;0.65;;;;;;;0.19;100.00;97862.94;5091550;28;20048;-59
2023/11/30 02:50:40;;;;;;;0.70;0.70;;;;;;;0.16;100.00;97869.44;5085593;28;20763;-58
2023/11/30 02:53:07;;;;;;;0.70;0.70;;;;;;;0.07;100.00;97870.69;5102332;27;20040;-59
2023/11/30 02:55:34;;;;;;;0.60;0.60;;;;;;;0.08;100.00;97863.59;5095140;28;20162;-58
2023/11/30 02:58:04;;;;;;;0.70;0.70;;;;;;;0.04;100.00;97857.94;5091158;28;20745;-58
2023/11/30 03:00:32;;;;;;;0.65;0.65;;;;;;;0.10;100.00;97857.13;5091502;28;20127;-59
2023/11/30 03:02:59;;;;;;;0.70;0.70;;;;;;;0.27;100.00;97861.91;5093991;28;20603;-59
2023/11/30 03:05:26;;;;;;;0.75;0.75;;;;;;;0.26;100.00;97849.75;5095218;28;20735;-58
2023/11/30 03:07:53;;;;;;;0.60;0.60;;;;;;;0.30;100.00;97853.56;5089644;28;20044;-59
2023/11/30 03:10:20;;;;;;;0.70;0.70;;;;;;;0.36;100.00;97847.47;5090724;28;20048;-58
2023/11/30 03:12:47;;;;;;;0.75;0.75;;;;;;;0.29;100.00;97846.69;5088849;28;20109;-59
2023/11/30 03:15:18;;;;;;;0.63;0.63;;;;;;;0.33;100.00;97847.91;5090246;28;20047;-58
2023/11/30 03:17:45;;;;;;;0.80;0.80;;;;;;;0.24;100.00;97838.59;5092882;28;20067;-59
2023/11/30 03:20:13;;;;;;;0.57;0.57;;;;;;;0.19;100.00;97837.38;5095445;28;20184;-58
2023/11/30 03:22:41;;;;;;;0.52;0.52;;;;;;;0.24;100.00;97841.25;5091420;28;20104;-58
2023/11/30 03:25:09;;;;;;;0.60;0.60;;;;;;;0.33;100.00;97840.00;5095974;28;20043;-59
2023/11/30 03:27:36;;;;;;;0.70;0.70;;;;;;;0.36;100.00;97836.91;5094423;28;20047;-59
2023/11/30 03:30:05;;;;;;;0.70;0.70;;;;;;;0.37;100.00;97833.25;5090878;28;20074;-59
2023/11/30 03:32:33;;;;;;;0.65;0.65;;;;;;;0.37;100.00;97836.69;5094689;28;20059;-59
2023/11/30 03:35:00;;;;;;;0.50;0.50;;;;;;;0.29;100.00;97825.59;5095677;28;20048;-59
2023/11/30 03:37:27;;;;;;;0.60;0.60;;;;;;;0.34;100.00;97825.78;5097648;28;20047;-58
2023/11/30 03:39:54;;;;;;;0.60;0.60;;;;;;;0.25;100.00;97819.13;5097926;28;20497;-59
2023/11/30 03:42:21;;;;;;;0.55;0.55;;;;;;;0.43;100.00;97819.25;5096498;28;20058;-59
2023/11/30 03:44:48;;;;;;;0.63;0.63;;;;;;;0.27;100.00;97822.38;5096410;28;20059;-59
2023/11/30 03:47:15;;;;;;;0.60;0.60;;;;;;;0.28;100.00;97818.72;5094715;27;20043;-59
2023/11/30 03:49:48;;;;;;;0.60;0.60;;;;;;;0.25;100.00;97824.41;5093100;28;20043;-59
2023/11/30 03:52:15;;;;;;;0.65;0.65;;;;;;;0.23;100.00;97821.19;5098421;28;20075;-59
2023/11/30 03:54:43;;;;;;;0.65;0.65;;;;;;;0.30;100.00;97816.66;5096638;28;20162;-59
2023/11/30 03:57:10;;;;;;;0.60;0.60;;;;;;;0.13;100.00;97817.16;5096139;28;20064;-58
2023/11/30 03:59:37;;;;;;;0.55;0.55;;;;;;;0.06;100.00;97811.13;5092639;28;20055;-59
2023/11/30 04:02:05;;;;;;;0.50;0.50;;;;;;;0.09;100.00;97812.53;5093240;28;20040;-59
2023/11/30 04:04:34;;;;;;;0.60;0.60;;;;;;;0.04;100.00;97813.16;5097160;28;20043;-59
2023/11/30 04:07:03;;;;;;;0.60;0.60;;;;;;;0.20;100.00;97812.69;5097391;28;20043;-59
2023/11/30 04:09:30;;;;;;;0.60;0.60;;;;;;;0.40;100.00;97817.00;5092807;28;20431;-59
2023/11/30 04:11:57;;;;;;;0.50;0.50;;;;;;;0.17;100.00;97813.06;5088940;28;20044;-58
2023/11/30 04:14:24;;;;;;;0.80;0.80;;;;;;;0.18;100.00;97814.72;5094720;28;20667;-58
2023/11/30 04:16:51;;;;;;;0.68;0.68;;;;;;;0.23;100.00;97810.66;5111501;27;20047;-58
2023/11/30 04:19:18;;;;;;;0.60;0.60;;;;;;;0.24;100.00;97817.53;5094449;28;20058;-59
2023/11/30 04:21:45;;;;;;;0.70;0.70;;;;;;;-0.05;100.00;97806.47;5093504;28;20093;-59
2023/11/30 04:24:15;;;;;;;0.60;0.60;;;;;;;-0.09;100.00;97810.56;5096069;28;20126;-59
2023/11/30 04:26:46;;;;;;;0.70;0.70;;;;;;;-0.13;100.00;97806.72;5092329;28;20076;-59
2023/11/30 04:29:13;;;;;;;0.70;0.70;;;;;;;-0.13;100.00;97796.19;5091895;28;20054;-59
2023/11/30 04:31:42;;;;;;;0.70;0.70;;;;;;;-0.03;100.00;97793.91;5111057;27;20093;-59
2023/11/30 04:34:09;;;;;;;0.70;0.70;;;;;;;-0.02;100.00;97795.56;5087660;28;20043;-59
2023/11/30 04:36:36;;;;;;;0.80;0.80;;;;;;;-0.11;100.00;97794.16;5109933;27;20104;-59
2023/11/30 04:39:04;;;;;;;0.65;0.65;;;;;;;0.03;100.00;97790.47;5091415;28;20451;-59
2023/11/30 04:41:38;;;;;;;0.70;0.70;;;;;;;0.03;100.00;97795.72;5108634;27;20560;-59
2023/11/30 04:44:05;;;;;;;0.70;0.70;;;;;;;0.05;100.00;97785.78;5089504;27;21510;-59
2023/11/30 04:46:33;;;;;;;0.60;0.60;;;;;;;0.18;100.00;97782.28;5092195;28;20158;-59
2023/11/30 04:49:01;;;;;;;0.70;0.70;;;;;;;0.19;100.00;97781.25;5096756;28;20039;-59
2023/11/30 04:51:34;;;;;;;0.60;0.60;;;;;;;0.23;100.00;97779.03;5097448;28;20059;-59
2023/11/30 04:54:02;;;;;;;0.68;0.68;;;;;;;0.23;100.00;97784.28;5095972;28;20032;-59
2023/11/30 04:56:31;;;;;;;0.70;0.70;;;;;;;0.16;100.00;97779.84;5095779;28;20121;-59
2023/11/30 04:59:00;;;;;;;0.60;0.60;;;;;;;0.12;100.00;97768.09;5095330;28;20138;-59
2023/11/30 05:01:27;;;;;;;0.70;0.70;;;;;;;0.14;100.00;97778.44;5096276;28;20043;-59
2023/11/30 05:03:56;;;;;;;0.82;0.82;;;;;;;0.08;100.00;97782.75;5092981;28;20039;-59
2023/11/30 05:06:23;;;;;;;0.70;0.70;;;;;;;0.04;100.00;97786.78;5092923;27;20051;-59
2023/11/30 05:08:50;;;;;;;0.70;0.70;;;;;;;-0.02;100.00;97783.19;5096467;28;20051;-59
2023/11/30 05:11:17;;;;;;;0.70;0.70;;;;;;;-0.09;100.00;97782.41;5095871;28;20071;-59
2023/11/30 05:13:44;;;;;;;0.60;0.60;;;;;;;-0.04;100.00;97785.22;5093833;27;20364;-59
2023/11/30 05:16:15;;;;;;;0.70;0.70;;;;;;;-0.04;100.00;97784.41;5095074;28;20104;-59
2023/11/30 05:18:42;;;;;;;0.77;0.77;;;;;;;0.02;100.00;97791.47;5098216;28;20072;-59
2023/11/30 05:21:09;;;;;;;0.60;0.60;;;;;;;0.03;100.00;97789.66;5090569;28;20086;-59
2023/11/30 05:23:36;;;;;;;0.70;0.70;;;;;;;0.00;100.00;97780.34;5095616;28;20732;-59
2023/11/30 05:26:04;;;;;;;0.70;0.70;;;;;;;-0.05;100.00;97773.06;5090689;28;20039;-59
2023/11/30 05:28:32;;;;;;;0.60;0.60;;;;;;;0.07;100.00;97767.13;5088524;28;20043;-59
2023/11/30 05:30:59;;;;;;;0.60;0.60;;;;;;;0.03;100.00;97779.13;5094479;28;20047;-59
2023/11/30 05:33:30;;;;;;;0.60;0.60;;;;;;;0.02;100.00;97780.13;5093642;28;20366;-59
2023/11/30 05:35:58;;;;;;;0.50;0.50;;;;;;;0.09;100.00;97788.81;5088568;28;20044;-59
2023/11/30 05:38:27;;;;;;;0.60;0.60;;;;;;;0.07;100.00;97781.09;5094211;28;20047;-58
2023/11/30 05:40:54;;;;;;;0.70;0.70;;;;;;;0.05;100.00;97777.91;5095950;28;20040;-59
2023/11/30 05:43:21;;;;;;;0.70;0.70;;;;;;;0.04;100.00;97775.47;5091199;28;20050;-59
2023/11/30 05:45:48;;;;;;;0.77;0.77;;;;;;;0.03;100.00;97774.66;5090349;28;20504;-59
2023/11/30 05:48:15;;;;;;;0.50;0.50;;;;;;;0.05;100.00;97770.00;5094564;28;20055;-60
2023/11/30 05:50:46;;;;;;;0.70;0.70;;;;;;;-0.04;100.00;97768.59;5093378;28;20043;-58
2023/11/30 05:53:13;;;;;;;0.80;0.80;;;;;;;-0.08;100.00;97762.94;5091999;28;20048;-58
2023/11/30 05:55:41;;;;;;;0.80;0.80;;;;;;;-0.13;100.00;97765.38;5089512;28;20044;-58
2023/11/30 05:58:08;;;;;;;0.90;0.90;;;;;;;-0.33;100.00;97754.94;5086547;28;20059;-59
2023/11/30 06:00:36;;;;;;;0.80;0.80;;;;;;;-0.22;100.00;97756.13;5088319;28;20050;-59
2023/11/30 06:03:04;;;;;;;0.60;0.60;;;;;;;-0.19;100.00;97757.53;5095384;28;20039;-59
2023/11/30 06:05:31;;;;;;;0.93;0.93;;;;;;;-0.16;100.00;97754.47;5089184;28;20203;-60
2023/11/30 06:08:00;;;;;;;0.80;0.80;;;;;;;-0.15;100.00;97748.19;5094361;28;20155;-60
2023/11/30 06:10:27;;;;;;;0.70;0.70;;;;;;;-0.07;100.00;97754.03;5091152;28;20043;-59
2023/11/30 06:12:56;;;;;;;0.60;0.60;;;;;;;-0.08;100.00;97754.22;5092444;28;20044;-59
2023/11/30 06:15:23;;;;;;;0.80;0.80;;;;;;;-0.08;100.00;97757.66;5088366;28;20055;-59
2023/11/30 06:17:50;;;;;;;0.82;0.82;;;;;;;-0.09;100.00;97755.25;5091433;28;20075;-60
2023/11/30 06:20:17;;;;;;;0.93;0.93;;;;;;;-0.03;100.00;97749.94;5086664;28;20597;-60
2023/11/30 06:22:46;;;;;;;0.90;0.90;;;;;;;-0.10;100.00;97751.00;5085425;28;20556;-60
2023/11/30 06:25:15;;;;;;;0.95;0.95;;;;;;;-0.06;100.00;97744.31;5092999;28;20055;-60
2023/11/30 06:27:42;;;;;;;1.50;1.23;;;;;;;-0.04;100.00;97747.53;5094817;28;20109;-60
2023/11/30 06:30:10;;;;;;;0.90;0.90;;;;;;;0.07;100.00;97743.41;5092857;28;20078;-60
2023/11/30 06:32:37;;;;;;;1.33;1.20;;;;;;;0.06;100.00;97737.34;5088660;28;20050;-59
2023/11/30 06:35:07;;;;;;;1.63;1.30;;;;;;;-0.08;100.00;97735.78;5091673;28;20035;-58
2023/11/30 06:37:34;;;;;;;0.90;0.90;;;;;;;0.02;100.00;97738.78;5093848;28;20082;-58
2023/11/30 06:40:02;;;;;;;1.20;1.10;;;;;;;0.09;100.00;97747.47;5092290;28;20105;-60
2023/11/30 06:42:31;;;;;;;0.80;0.80;;;;;;;0.05;100.00;97761.25;5090006;28;20135;-58
2023/11/30 06:44:59;;;;;;;0.90;0.90;;;;;;;0.09;100.00;97760.63;5081505;28;20792;-58
2023/11/30 06:47:27;;;;;;;0.98;0.98;;;;;;;0.25;100.00;97769.06;5093633;28;20040;-58
2023/11/30 06:49:54;;;;;;;0.90;0.90;;;;;;;0.14;100.00;97765.28;5096039;28;20046;-60
2023/11/30 06:52:21;;;;;;;1.08;1.05;;;;;;;0.23;100.00;97765.84;5096504;28;20143;-61
2023/11/30 06:54:48;;;;;;;1.40;1.30;;;;;;;0.09;100.00;97765.91;5097604;28;20039;-61
2023/11/30 06:57:17;;;;;;;0.90;0.90;;;;;;;0.15;100.00;97762.44;5092594;28;20543;-60
2023/11/30 06:59:48;;;;;;;1.30;1.20;;;;;;;0.12;100.00;97756.75;5099483;28;20068;-58
2023/11/30 07:02:15;;;;;;;1.10;1.10;;;;;;;-0.11;100.00;97757.28;5098449;28;20765;-59
2023/11/30 07:04:43;;;;;;;0.95;0.90;;;;;;;-0.06;100.00;97760.09;5097481;28;20063;-60
2023/11/30 07:07:11;;;;;;;1.48;1.38;;;;;;;0.01;100.00;97765.34;5098688;28;20051;-61
2023/11/30 07:09:38;;;;;;;0.93;0.93;;;;;;;0.03;100.00;97774.66;5096092;28;20525;-59
2023/11/30 07:12:07;;;;;;;1.00;1.00;;;;;;;0.05;100.00;97771.78;5099350;28;20293;-59
2023/11/30 07:14:34;;;;;;;1.00;1.00;;;;;;;0.17;100.00;97776.19;5096817;28;20512;-58
2023/11/30 07:17:03;;;;;;;1.90;1.52;;;;;;;-0.14;100.00;97765.63;5094527;28;20040;-58
2023/11/30 07:19:33;;;;;;;1.63;1.38;;;;;;;-0.31;100.00;97768.72;5097976;28;20055;-59
2023/11/30 07:22:01;;;;;;;1.00;0.97;;;;;;;-0.20;100.00;97769.91;5096696;28;20892;-60
2023/11/30 07:24:28;;;;;;;0.90;0.90;;;;;;;0.01;100.00;97776.69;5098287;28;20085;-60
2023/11/30 07:27:01;;;;;;;0.80;0.80;;;;;;;0.11;100.00;97782.31;5096372;28;20055;-59
2023/11/30 07:29:32;;;;;;;0.80;0.80;;;;;;;0.12;100.00;97778.66;5097121;28;20519;-60
2023/11/30 07:31:59;;;;;;;0.80;0.80;;;;;;;0.19;100.00;97775.97;5094719;28;20376;-59
2023/11/30 07:34:28;;;;;;;0.90;0.90;;;;;;;0.06;100.00;97773.44;5091852;28;20047;-58
2023/11/30 07:36:55;;;;;;;0.95;0.95;;;;;;;0.07;100.00;97770.56;5097231;28;20032;-58
2023/11/30 07:39:23;;;;;;;0.60;0.60;;;;;;;0.23;100.00;97757.94;5091035;28;20055;-59
2023/11/30 07:41:51;;;;;;;0.68;0.68;;;;;;;0.24;100.00;97762.19;5103548;27;20151;-59
2023/11/30 07:44:19;;;;;;;0.60;0.60;;;;;;;0.25;100.00;97764.63;5096449;28;20051;-59
2023/11/30 07:46:48;;;;;;;0.68;0.68;;;;;;;0.17;100.00;97765.66;5095013;28;20050;-58
2023/11/30 07:49:16;;;;;;;0.70;0.70;;;;;;;0.30;100.00;97774.50;5096678;28;20124;-59
2023/11/30 07:51:44;;;;;;;0.60;0.60;;;;;;;0.33;100.00;97779.38;5097105;28;20050;-59
2023/11/30 07:54:12;;;;;;;0.80;0.80;;;;;;;0.35;100.00;97775.50;5090930;28;20100;-59
2023/11/30 07:56:39;;;;;;;0.90;0.90;;;;;;;0.28;100.00;97773.94;5088643;28;20674;-59
2023/11/30 07:59:12;;;;;;;0.60;0.60;;;;;;;0.08;100.00;97761.66;5094240;27;20044;-59
2023/11/30 08:01:39;;;;;;;0.57;0.57;;;;;;;0.18;100.00;97755.94;5094717;28;20032;-59
2023/11/30 08:04:07;;;;;;;0.60;0.60;;;;;;;0.23;100.00;97755.31;5095249;28;20643;-59
2023/11/30 08:06:34;;;;;;;0.80;0.80;;;;;;;0.55;100.00;97754.28;5092370;28;20550;-60
2023/11/30 08:09:03;;;;;;;0.60;0.60;;;;;;;0.37;100.00;97767.38;5090298;27;20074;-58
2023/11/30 08:11:30;;;;;;;0.60;0.60;;;;;;;0.61;100.00;97771.88;5092954;28;20040;-59
2023/11/30 08:13:57;;;;;;;0.65;0.65;;;;;;;0.55;100.00;97762.19;5093136;28;20036;-60
2023/11/30 08:16:28;;;;;;;0.60;0.60;;;;;;;0.58;100.00;97764.38;5092934;28;20073;-60
2023/11/30 08:18:56;;;;;;;0.63;0.63;;;;;;;0.59;100.00;97763.34;5098804;28;20043;-60
2023/11/30 08:21:25;;;;;;;0.60;0.60;;;;;;;0.62;100.00;97757.69;5095028;27;20047;-60
2023/11/30 08:23:53;;;;;;;0.52;0.52;;;;;;;0.62;100.00;97747.13;5096009;28;20040;-60
2023/11/30 08:26:21;;;;;;;0.80;0.80;;;;;;;0.67;100.00;97748.28;5088244;28;20048;-60
2023/11/30 08:28:50;;;;;;;0.60;0.60;;;;;;;0.73;100.00;97758.00;5089517;28;20120;-60
2023/11/30 08:31:18;;;;;;;0.60;0.60;;;;;;;0.71;100.00;97752.13;5088698;28;20044;-60
2023/11/30 08:33:48;;;;;;;0.68;0.68;;;;;;;0.82;100.00;97749.59;5092549;28;20138;-60
2023/11/30 08:36:15;;;;;;;0.55;0.55;;;;;;;0.83;100.00;97755.69;5090602;28;20048;-60
2023/11/30 08:38:42;;;;;;;0.60;0.60;;;;;;;0.91;100.00;97755.41;5097365;28;20166;-59
2023/11/30 08:41:09;;;;;;;0.60;0.60;;;;;;;0.88;100.00;97753.22;5096867;27;20039;-60
2023/11/30 08:43:39;;;;;;;0.68;0.68;;;;;;;0.89;100.00;97749.53;5094760;28;20039;-60
2023/11/30 08:46:07;;;;;;;0.60;0.60;;;;;;;0.81;100.00;97745.34;5092007;28;20051;-60
2023/11/30 08:48:34;;;;;;;0.50;0.50;;;;;;;0.63;100.00;97748.72;5094897;28;20871;-60
2023/11/30 08:51:04;;;;;;;0.60;0.60;;;;;;;0.75;100.00;97753.28;5091910;28;20055;-60
2023/11/30 08:53:32;;;;;;;0.75;0.75;;;;;;;0.77;100.00;97753.88;5086929;28;20139;-60
2023/11/30 08:56:00;;;;;;;0.60;0.60;;;;;;;0.75;100.00;97751.50;5091652;28;20046;-60
2023/11/30 08:58:28;;;;;;;0.70;0.70;;;;;;;0.75;100.00;97748.03;5092652;28;20059;-59
2023/11/30 09:00:56;;;;;;;0.57;0.57;;;;;;;0.81;100.00;97744.53;5095389;28;20047;-59
2023/11/30 09:03:23;;;;;;;0.70;0.70;;;;;;;0.85;100.00;97746.53;5098284;28;20066;-59
2023/11/30 09:05:52;;;;;;;0.65;0.65;;;;;;;0.81;100.00;97752.44;5087326;28;20060;-59
2023/11/30 09:08:19;;;;;;;0.70;0.70;;;;;;;0.76;100.00;97752.28;5083741;28;20055;-60
2023/11/30 09:10:51;;;;;;;0.55;0.55;;;;;;;0.74;100.00;97749.06;5083386;28;20548;-59
2023/11/30 09:13:19;;;;;;;0.68;0.68;;;;;;;0.69;100.00;97754.16;5092676;28;20089;-59
2023/11/30 09:15:47;;;;;;;0.60;0.60;;;;;;;0.70;100.00;97746.06;5091308;28;20562;-61
2023/11/30 09:18:18;;;;;;;0.60;0.60;;;;;;;0.78;100.00;97750.25;5090130;28;20101;-61
2023/11/30 09:20:47;;;;;;;0.55;0.55;;;;;;;0.82;100.00;97751.41;5087341;28;20043;-61
2023/11/30 09:23:14;;;;;;;0.77;0.77;;;;;;;0.83;100.00;97743.28;5086674;28;20051;-60
2023/11/30 09:25:41;;;;;;;0.73;0.73;;;;;;;0.88;100.00;97750.56;5087958;28;20093;-61
2023/11/30 09:28:09;;;;;;;0.60;0.60;;;;;;;0.84;100.00;97742.25;5093310;28;20495;-59
2023/11/30 09:30:36;;;;;;;0.50;0.50;;;;;;;0.94;100.00;97749.69;5093211;28;20048;-59
2023/11/30 09:33:05;;;;;;;0.63;0.63;;;;;;;0.88;100.00;97747.13;5090314;28;20117;-59
2023/11/30 09:35:34;;;;;;;0.57;0.57;;;;;;;0.81;100.00;97741.91;5094970;28;20398;-59
2023/11/30 09:38:01;;;;;;;0.60;0.60;;;;;;;0.81;100.00;97739.25;5093529;28;20043;-59
2023/11/30 09:40:29;;;;;;;0.63;0.63;;;;;;;0.87;100.00;97725.19;5096311;28;20044;-59
2023/11/30 09:42:59;;;;;;;0.45;0.45;;;;;;;0.98;100.00;97724.50;5092368;28;20044;-58
2023/11/30 09:45:26;;;;;;;0.52;0.52;;;;;;;1.05;100.00;97730.53;5094093;28;20779;-58
2023/11/30 09:47:53;;;;;;;0.63;0.63;;;;;;;1.14;100.00;97727.59;5091165;28;20044;-58
2023/11/30 09:50:20;;;;;;;0.60;0.60;;;;;;;1.17;100.00;97727.94;5088976;28;20039;-58
2023/11/30 09:52:51;;;;;;;0.70;0.70;;;;;;;1.15;100.00;97726.56;5093775;28;20135;-59
2023/11/30 09:55:25;;;;;;;0.60;0.60;;;;;;;1.08;100.00;97731.91;5089632;28;20047;-58
2023/11/30 09:57:52;;;;;;;0.60;0.60;;;;;;;1.12;100.00;97729.63;5088843;28;20056;-59
2023/11/30 10:00:20;;;;;;;0.50;0.50;;;;;;;1.13;100.00;97731.28;5092461;28;20127;-59
2023/11/30 10:02:53;;;;;;;0.63;0.63;;;;;;;1.01;100.00;97724.06;5090923;28;20119;-59
2023/11/30 10:05:21;;;;;;;0.60;0.60;;;;;;;1.07;100.00;97720.56;5086497;28;20173;-59
2023/11/30 10:07:52;;;;;;;0.50;0.50;;;;;;;1.07;100.00;97728.47;5093733;28;20127;-59
2023/11/30 10:10:20;;;;;;;0.50;0.50;;;;;;;1.01;100.00;97729.34;5045789;28;20078;-59
2023/11/30 10:12:50;;;;;;;0.60;0.60;;;;;;;1.13;100.00;97732.06;5052250;28;20051;-59
2023/11/30 10:15:17;;;;;;;0.55;0.55;;;;;;;1.18;100.00;97734.06;5050879;28;20069;-59
2023/11/30 10:17:44;;;;;;;0.60;0.60;;;;;;;1.18;100.00;97728.78;5048413;28;20136;-60
2023/11/30 10:20:12;;;;;;;0.40;0.40;;;;;;;1.18;100.00;97731.41;5053771;28;20041;-61
2023/11/30 10:22:42;;;;;;;0.60;0.60;;;;;;;1.10;100.00;97719.31;5048767;28;20962;-60
2023/11/30 10:25:13;;;;;;;0.60;0.60;;;;;;;1.12;100.00;97714.59;5053650;28;20558;-60
2023/11/30 10:27:42;;;;;;;0.60;0.60;;;;;;;1.08;100.00;97719.53;5054828;28;20225;-60
2023/11/30 10:30:10;;;;;;;0.57;0.57;;;;;;;1.00;100.00;97716.34;5059550;28;20146;-60
2023/11/30 10:32:39;;;;;;;0.68;0.68;;;;;;;1.01;100.00;97713.50;5052506;28;20047;-61
2023/11/30 10:35:06;;;;;;;0.70;0.70;;;;;;;1.10;100.00;97710.56;5057453;28;20775;-60
2023/11/30 10:37:34;;;;;;;0.68;0.68;;;;;;;1.21;100.00;97721.22;5057553;28;20106;-60
2023/11/30 10:40:03;;;;;;;0.70;0.70;;;;;;;1.09;100.00;97715.03;5059972;28;20041;-59
2023/11/30 10:42:32;;;;;;;0.70;0.70;;;;;;;1.21;100.00;97712.50;5061076;28;20048;-59
2023/11/30 10:45:03;;;;;;;0.52;0.52;;;;;;;1.35;100.00;97702.59;5060639;28;20532;-60
2023/11/30 10:47:30;;;;;;;0.60;0.60;;;;;;;1.47;100.00;97696.38;5056081;28;20044;-60
2023/11/30 10:49:59;;;;;;;0.75;0.75;;;;;;;1.56;100.00;97694.22;5059601;28;20055;-60
2023/11/30 10:52:27;;;;;;;0.60;0.60;;;;;;;1.69;100.00;97703.81;5058497;28;20045;-59
2023/11/30 10:54:56;;;;;;;0.70;0.70;;;;;;;1.89;100.00;97714.13;5058260;28;20078;-59
2023/11/30 10:57:24;;;;;;;0.70;0.70;;;;;;;1.42;100.00;97714.72;5058996;28;20041;-59
2023/11/30 10:59:58;;;;;;;0.50;0.50;;;;;;;1.62;100.00;97709.22;5056438;28;20055;-59
2023/11/30 11:02:25;;;;;;;0.70;0.70;;;;;;;1.40;100.00;97716.75;5051951;28;20159;-59
2023/11/30 11:04:52;;;;;;;0.60;0.60;;;;;;;1.42;100.00;97709.44;5056648;28;20131;-60
2023/11/30 11:07:21;;;;;;;0.80;0.80;;;;;;;1.35;100.00;97719.25;5056411;28;20045;-60
2023/11/30 11:09:52;;;;;;;0.60;0.60;;;;;;;1.31;100.00;97702.25;5087383;27;20052;-59
2023/11/30 11:12:20;;;;;;;0.60;0.60;;;;;;;1.38;100.00;97718.00;5100047;27;20078;-59
2023/11/30 11:14:52;;;;;;;0.65;0.65;;;;;;;1.26;100.00;97715.28;5094462;27;20105;-59
2023/11/30 11:17:22;;;;;;;0.60;0.60;;;;;;;1.38;100.00;97708.25;5099218;28;20048;-60
2023/11/30 11:19:58;;;;;;;0.70;0.70;;;;;;;1.48;100.00;97716.47;5095991;27;20127;-60
2023/11/30 11:22:26;;;;;;;0.52;0.52;;;;;;;1.37;100.00;97711.91;5096566;27;20112;-59
2023/11/30 11:24:56;;;;;;;0.57;0.57;;;;;;;1.58;100.00;97728.34;5103321;28;20047;-59
2023/11/30 11:27:27;;;;;;;;;;;;;;;1.49;100.00;97723.34;5093511;28;20395;-59
2023/11/30 11:29:56;;;;;;;0.68;0.68;;;;;;;1.47;100.00;97728.06;5096245;28;19924;-60
2023/11/30 11:32:25;;;;;;;0.50;0.50;;;;;;;1.16;100.00;97726.34;5092259;27;20248;-60
2023/11/30 11:34:52;;;;;;;0.60;0.60;;;;;;;1.17;100.00;97721.88;5093834;28;20496;-60
2023/11/30 11:37:20;;;;;;;0.70;0.70;;;;;;;1.28;100.00;97713.25;5092931;28;20288;-60